sensor_id;sensor_type;location;lat;lon;timestamp;P1;durP1;ratioP1;P2;durP2;ratioP2
70406;SDS011;57821;52.202;0.154;2023-04-05T00:01:22;17.88;;;9.07;;
70406;SDS011;57821;52.202;0.154;2023-04-05T00:04:09;18.67;;;9.48;;
70406;SDS011;57821;52.202;0.154;2023-04-05T00:06:56;19.08;;;9.30;;
70406;SDS011;57821;52.202;0.154;2023-04-05T00:09:43;22.20;;;10.23;;
70406;SDS011;57821;52.202;0.154;2023-04-05T00:12:30;18.85;;;10.15;;
70406;SDS011;57821;52.202;0.154;2023-04-05T00:15:17;18.60;;;11.43;;
70406;SDS011;57821;52.202;0.154;2023-04-05T00:18:04;23.92;;;10.07;;
70406;SDS011;57821;52.202;0.154;2023-04-05T00:20:51;21.27;;;10.40;;
70406;SDS011;57821;52.202;0.154;2023-04-05T00:23:38;20.73;;;10.60;;
70406;SDS011;57821;52.202;0.154;2023-04-05T00:26:26;26.35;;;11.57;;
70406;SDS011;57821;52.202;0.154;2023-04-05T00:29:16;21.13;;;11.30;;
70406;SDS011;57821;52.202;0.154;2023-04-05T00:32:03;28.65;;;11.75;;
70406;SDS011;57821;52.202;0.154;2023-04-05T00:34:50;22.92;;;10.77;;
70406;SDS011;57821;52.202;0.154;2023-04-05T00:37:37;22.58;;;12.00;;
70406;SDS011;57821;52.202;0.154;2023-04-05T00:40:23;20.30;;;11.85;;
70406;SDS011;57821;52.202;0.154;2023-04-05T00:43:10;25.67;;;12.10;;
70406;SDS011;57821;52.202;0.154;2023-04-05T00:45:57;26.58;;;13.15;;
70406;SDS011;57821;52.202;0.154;2023-04-05T00:48:44;27.10;;;13.25;;
70406;SDS011;57821;52.202;0.154;2023-04-05T00:51:31;23.90;;;12.45;;
70406;SDS011;57821;52.202;0.154;2023-04-05T00:54:19;28.00;;;13.52;;
70406;SDS011;57821;52.202;0.154;2023-04-05T00:57:06;24.15;;;13.50;;
70406;SDS011;57821;52.202;0.154;2023-04-05T00:59:53;24.70;;;13.45;;
70406;SDS011;57821;52.202;0.154;2023-04-05T01:02:41;25.80;;;13.35;;
70406;SDS011;57821;52.202;0.154;2023-04-05T01:11:07;23.35;;;13.38;;
70406;SDS011;57821;52.202;0.154;2023-04-05T01:13:59;31.17;;;13.48;;
70406;SDS011;57821;52.202;0.154;2023-04-05T01:16:47;21.35;;;11.35;;
70406;SDS011;57821;52.202;0.154;2023-04-05T01:19:33;26.13;;;13.63;;
70406;SDS011;57821;52.202;0.154;2023-04-05T01:35:08;26.60;;;13.45;;
70406;SDS011;57821;52.202;0.154;2023-04-05T01:38:04;24.60;;;12.03;;
70406;SDS011;57821;52.202;0.154;2023-04-05T01:40:55;26.45;;;14.27;;
70406;SDS011;57821;52.202;0.154;2023-04-05T01:43:42;26.73;;;14.82;;
70406;SDS011;57821;52.202;0.154;2023-04-05T01:46:29;29.80;;;14.75;;
70406;SDS011;57821;52.202;0.154;2023-04-05T01:49:16;27.40;;;13.40;;
70406;SDS011;57821;52.202;0.154;2023-04-05T01:52:03;26.00;;;14.10;;
70406;SDS011;57821;52.202;0.154;2023-04-05T01:54:50;22.17;;;13.32;;
70406;SDS011;57821;52.202;0.154;2023-04-05T01:57:37;28.83;;;15.32;;
70406;SDS011;57821;52.202;0.154;2023-04-05T02:00:24;26.13;;;13.63;;
70406;SDS011;57821;52.202;0.154;2023-04-05T02:03:10;28.27;;;14.27;;
70406;SDS011;57821;52.202;0.154;2023-04-05T02:05:57;28.48;;;14.35;;
70406;SDS011;57821;52.202;0.154;2023-04-05T02:08:44;25.00;;;15.23;;
70406;SDS011;57821;52.202;0.154;2023-04-05T02:11:31;26.67;;;14.00;;
70406;SDS011;57821;52.202;0.154;2023-04-05T02:14:18;26.40;;;14.80;;
70406;SDS011;57821;52.202;0.154;2023-04-05T02:17:05;26.30;;;13.88;;
70406;SDS011;57821;52.202;0.154;2023-04-05T02:19:51;26.95;;;14.52;;
70406;SDS011;57821;52.202;0.154;2023-04-05T02:22:39;26.35;;;14.63;;
70406;SDS011;57821;52.202;0.154;2023-04-05T02:25:26;26.00;;;13.98;;
70406;SDS011;57821;52.202;0.154;2023-04-05T02:28:13;30.63;;;13.70;;
70406;SDS011;57821;52.202;0.154;2023-04-05T02:31:00;37.00;;;15.30;;
70406;SDS011;57821;52.202;0.154;2023-04-05T02:33:47;27.85;;;13.13;;
70406;SDS011;57821;52.202;0.154;2023-04-05T02:36:34;24.98;;;13.68;;
70406;SDS011;57821;52.202;0.154;2023-04-05T02:39:21;25.70;;;12.85;;
70406;SDS011;57821;52.202;0.154;2023-04-05T02:42:08;28.77;;;12.40;;
70406;SDS011;57821;52.202;0.154;2023-04-05T02:44:55;23.67;;;12.95;;
70406;SDS011;57821;52.202;0.154;2023-04-05T02:47:42;22.42;;;13.63;;
70406;SDS011;57821;52.202;0.154;2023-04-05T02:50:29;25.00;;;13.38;;
70406;SDS011;57821;52.202;0.154;2023-04-05T02:53:16;30.63;;;13.60;;
70406;SDS011;57821;52.202;0.154;2023-04-05T02:56:10;25.13;;;13.13;;
70406;SDS011;57821;52.202;0.154;2023-04-05T02:59:00;24.45;;;11.80;;
70406;SDS011;57821;52.202;0.154;2023-04-05T03:01:48;25.20;;;13.20;;
70406;SDS011;57821;52.202;0.154;2023-04-05T03:04:42;26.60;;;12.70;;
70406;SDS011;57821;52.202;0.154;2023-04-05T03:07:29;26.02;;;13.15;;
70406;SDS011;57821;52.202;0.154;2023-04-05T03:10:16;24.92;;;12.50;;
70406;SDS011;57821;52.202;0.154;2023-04-05T03:13:08;25.60;;;12.48;;
70406;SDS011;57821;52.202;0.154;2023-04-05T03:15:55;24.88;;;12.98;;
70406;SDS011;57821;52.202;0.154;2023-04-05T03:18:44;28.23;;;13.60;;
70406;SDS011;57821;52.202;0.154;2023-04-05T03:21:31;22.98;;;12.35;;
70406;SDS011;57821;52.202;0.154;2023-04-05T03:24:25;23.33;;;12.65;;
70406;SDS011;57821;52.202;0.154;2023-04-05T03:27:15;24.42;;;13.18;;
70406;SDS011;57821;52.202;0.154;2023-04-05T03:30:24;23.70;;;13.60;;
70406;SDS011;57821;52.202;0.154;2023-04-05T03:33:17;25.58;;;14.52;;
70406;SDS011;57821;52.202;0.154;2023-04-05T03:36:08;18.23;;;10.23;;
70406;SDS011;57821;52.202;0.154;2023-04-05T03:38:57;24.08;;;13.65;;
70406;SDS011;57821;52.202;0.154;2023-04-05T03:41:44;25.42;;;13.23;;
70406;SDS011;57821;52.202;0.154;2023-04-05T03:44:32;25.85;;;13.07;;
70406;SDS011;57821;52.202;0.154;2023-04-05T03:47:20;25.15;;;12.43;;
70406;SDS011;57821;52.202;0.154;2023-04-05T03:50:09;25.77;;;13.27;;
70406;SDS011;57821;52.202;0.154;2023-04-05T03:52:56;24.05;;;12.70;;
70406;SDS011;57821;52.202;0.154;2023-04-05T03:55:43;26.33;;;13.05;;
70406;SDS011;57821;52.202;0.154;2023-04-05T03:58:30;22.70;;;12.45;;
70406;SDS011;57821;52.202;0.154;2023-04-05T04:01:18;27.98;;;13.45;;
70406;SDS011;57821;52.202;0.154;2023-04-05T04:04:05;30.02;;;13.32;;
70406;SDS011;57821;52.202;0.154;2023-04-05T04:06:52;23.05;;;12.63;;
70406;SDS011;57821;52.202;0.154;2023-04-05T04:09:42;28.50;;;13.15;;
70406;SDS011;57821;52.202;0.154;2023-04-05T04:12:31;24.02;;;12.98;;
70406;SDS011;57821;52.202;0.154;2023-04-05T04:15:19;29.63;;;14.00;;
70406;SDS011;57821;52.202;0.154;2023-04-05T04:18:20;23.42;;;13.43;;
70406;SDS011;57821;52.202;0.154;2023-04-05T04:21:45;24.17;;;13.63;;
70406;SDS011;57821;52.202;0.154;2023-04-05T04:24:55;25.45;;;13.25;;
70406;SDS011;57821;52.202;0.154;2023-04-05T04:27:48;24.30;;;13.38;;
70406;SDS011;57821;52.202;0.154;2023-04-05T04:30:44;24.27;;;13.57;;
70406;SDS011;57821;52.202;0.154;2023-04-05T04:34:03;24.65;;;13.43;;
70406;SDS011;57821;52.202;0.154;2023-04-05T04:37:06;23.85;;;13.60;;
70406;SDS011;57821;52.202;0.154;2023-04-05T04:40:29;26.63;;;13.55;;
70406;SDS011;57821;52.202;0.154;2023-04-05T04:43:37;26.80;;;13.23;;
70406;SDS011;57821;52.202;0.154;2023-04-05T04:46:33;32.15;;;14.65;;
70406;SDS011;57821;52.202;0.154;2023-04-05T04:49:26;21.70;;;12.35;;
70406;SDS011;57821;52.202;0.154;2023-04-05T04:52:13;25.27;;;13.05;;
70406;SDS011;57821;52.202;0.154;2023-04-05T04:55:01;24.35;;;14.45;;
70406;SDS011;57821;52.202;0.154;2023-04-05T04:57:50;25.40;;;13.50;;
70406;SDS011;57821;52.202;0.154;2023-04-05T05:00:38;22.25;;;13.23;;
70406;SDS011;57821;52.202;0.154;2023-04-05T05:03:28;27.45;;;13.60;;
70406;SDS011;57821;52.202;0.154;2023-04-05T05:06:15;26.67;;;13.80;;
70406;SDS011;57821;52.202;0.154;2023-04-05T05:09:03;25.73;;;13.50;;
70406;SDS011;57821;52.202;0.154;2023-04-05T05:11:54;26.58;;;14.18;;
70406;SDS011;57821;52.202;0.154;2023-04-05T05:14:41;28.52;;;14.38;;
70406;SDS011;57821;52.202;0.154;2023-04-05T05:17:27;25.42;;;14.98;;
70406;SDS011;57821;52.202;0.154;2023-04-05T05:20:14;25.83;;;14.05;;
70406;SDS011;57821;52.202;0.154;2023-04-05T05:23:04;24.75;;;13.27;;
70406;SDS011;57821;52.202;0.154;2023-04-05T05:25:56;25.15;;;13.80;;
70406;SDS011;57821;52.202;0.154;2023-04-05T05:28:43;23.55;;;12.55;;
70406;SDS011;57821;52.202;0.154;2023-04-05T05:31:30;27.13;;;13.75;;
70406;SDS011;57821;52.202;0.154;2023-04-05T05:34:17;24.45;;;12.63;;
70406;SDS011;57821;52.202;0.154;2023-04-05T05:37:08;24.45;;;13.30;;
70406;SDS011;57821;52.202;0.154;2023-04-05T05:39:56;22.58;;;12.40;;
70406;SDS011;57821;52.202;0.154;2023-04-05T05:42:43;26.13;;;12.75;;
70406;SDS011;57821;52.202;0.154;2023-04-05T05:45:30;22.73;;;12.45;;
70406;SDS011;57821;52.202;0.154;2023-04-05T05:48:17;26.20;;;14.00;;
70406;SDS011;57821;52.202;0.154;2023-04-05T05:51:03;26.52;;;12.70;;
70406;SDS011;57821;52.202;0.154;2023-04-05T05:53:50;33.90;;;13.85;;
70406;SDS011;57821;52.202;0.154;2023-04-05T05:56:37;20.00;;;12.38;;
70406;SDS011;57821;52.202;0.154;2023-04-05T05:59:24;26.27;;;13.10;;
70406;SDS011;57821;52.202;0.154;2023-04-05T06:02:11;25.17;;;12.68;;
70406;SDS011;57821;52.202;0.154;2023-04-05T06:04:58;24.52;;;13.40;;
70406;SDS011;57821;52.202;0.154;2023-04-05T06:07:45;22.52;;;12.40;;
70406;SDS011;57821;52.202;0.154;2023-04-05T06:10:32;23.90;;;12.48;;
70406;SDS011;57821;52.202;0.154;2023-04-05T06:13:21;27.00;;;12.23;;
70406;SDS011;57821;52.202;0.154;2023-04-05T06:16:08;26.30;;;12.75;;
70406;SDS011;57821;52.202;0.154;2023-04-05T06:18:55;26.55;;;13.88;;
70406;SDS011;57821;52.202;0.154;2023-04-05T06:21:43;26.30;;;12.27;;
70406;SDS011;57821;52.202;0.154;2023-04-05T06:24:30;22.67;;;11.45;;
70406;SDS011;57821;52.202;0.154;2023-04-05T06:27:16;25.83;;;12.82;;
70406;SDS011;57821;52.202;0.154;2023-04-05T06:30:04;24.38;;;12.85;;
70406;SDS011;57821;52.202;0.154;2023-04-05T06:32:51;29.77;;;12.73;;
70406;SDS011;57821;52.202;0.154;2023-04-05T06:35:38;22.33;;;12.02;;
70406;SDS011;57821;52.202;0.154;2023-04-05T06:38:25;21.17;;;11.80;;
70406;SDS011;57821;52.202;0.154;2023-04-05T06:41:13;24.02;;;12.57;;
70406;SDS011;57821;52.202;0.154;2023-04-05T06:44:00;21.98;;;11.43;;
70406;SDS011;57821;52.202;0.154;2023-04-05T06:46:47;24.80;;;11.80;;
70406;SDS011;57821;52.202;0.154;2023-04-05T06:49:34;27.63;;;12.88;;
70406;SDS011;57821;52.202;0.154;2023-04-05T06:52:20;24.65;;;11.57;;
70406;SDS011;57821;52.202;0.154;2023-04-05T06:55:07;21.60;;;11.43;;
70406;SDS011;57821;52.202;0.154;2023-04-05T06:57:54;23.30;;;12.55;;
70406;SDS011;57821;52.202;0.154;2023-04-05T07:00:41;22.02;;;11.60;;
70406;SDS011;57821;52.202;0.154;2023-04-05T07:03:28;21.80;;;11.30;;
70406;SDS011;57821;52.202;0.154;2023-04-05T07:06:15;18.52;;;11.18;;
70406;SDS011;57821;52.202;0.154;2023-04-05T07:09:02;23.50;;;11.63;;
70406;SDS011;57821;52.202;0.154;2023-04-05T07:11:48;20.27;;;11.38;;
70406;SDS011;57821;52.202;0.154;2023-04-05T07:14:36;25.85;;;12.13;;
70406;SDS011;57821;52.202;0.154;2023-04-05T07:17:23;26.90;;;12.07;;
70406;SDS011;57821;52.202;0.154;2023-04-05T07:20:10;23.17;;;12.32;;
70406;SDS011;57821;52.202;0.154;2023-04-05T07:22:57;25.15;;;11.52;;
70406;SDS011;57821;52.202;0.154;2023-04-05T07:25:44;23.35;;;12.18;;
70406;SDS011;57821;52.202;0.154;2023-04-05T07:28:31;19.73;;;11.43;;
70406;SDS011;57821;52.202;0.154;2023-04-05T07:31:18;20.13;;;11.20;;
70406;SDS011;57821;52.202;0.154;2023-04-05T07:34:05;21.05;;;11.57;;
70406;SDS011;57821;52.202;0.154;2023-04-05T07:36:52;23.33;;;11.32;;
70406;SDS011;57821;52.202;0.154;2023-04-05T07:39:39;20.75;;;10.65;;
70406;SDS011;57821;52.202;0.154;2023-04-05T07:42:26;21.90;;;11.35;;
70406;SDS011;57821;52.202;0.154;2023-04-05T07:45:12;19.60;;;11.50;;
70406;SDS011;57821;52.202;0.154;2023-04-05T07:47:59;22.35;;;11.77;;
70406;SDS011;57821;52.202;0.154;2023-04-05T07:50:46;21.15;;;11.35;;
70406;SDS011;57821;52.202;0.154;2023-04-05T07:53:34;24.27;;;11.60;;
70406;SDS011;57821;52.202;0.154;2023-04-05T07:56:22;18.38;;;10.18;;
70406;SDS011;57821;52.202;0.154;2023-04-05T07:59:08;18.90;;;11.10;;
70406;SDS011;57821;52.202;0.154;2023-04-05T08:01:56;21.50;;;10.30;;
70406;SDS011;57821;52.202;0.154;2023-04-05T08:04:57;18.67;;;9.05;;
70406;SDS011;57821;52.202;0.154;2023-04-05T08:07:44;19.33;;;9.07;;
70406;SDS011;57821;52.202;0.154;2023-04-05T08:10:31;17.23;;;8.80;;
70406;SDS011;57821;52.202;0.154;2023-04-05T08:13:18;16.02;;;9.18;;
70406;SDS011;57821;52.202;0.154;2023-04-05T08:16:05;18.48;;;8.88;;
70406;SDS011;57821;52.202;0.154;2023-04-05T08:18:52;19.10;;;9.02;;
70406;SDS011;57821;52.202;0.154;2023-04-05T08:21:39;14.88;;;8.10;;
70406;SDS011;57821;52.202;0.154;2023-04-05T08:24:26;14.38;;;7.72;;
70406;SDS011;57821;52.202;0.154;2023-04-05T08:27:13;20.48;;;8.55;;
70406;SDS011;57821;52.202;0.154;2023-04-05T08:30:00;18.52;;;8.48;;
70406;SDS011;57821;52.202;0.154;2023-04-05T08:32:47;15.75;;;8.70;;
70406;SDS011;57821;52.202;0.154;2023-04-05T08:35:37;16.10;;;7.70;;
70406;SDS011;57821;52.202;0.154;2023-04-05T08:38:24;16.58;;;7.95;;
70406;SDS011;57821;52.202;0.154;2023-04-05T08:44:08;19.00;;;8.82;;
70406;SDS011;57821;52.202;0.154;2023-04-05T08:46:57;17.38;;;8.15;;
70406;SDS011;57821;52.202;0.154;2023-04-05T08:49:44;17.65;;;8.45;;
70406;SDS011;57821;52.202;0.154;2023-04-05T08:52:32;16.27;;;7.25;;
70406;SDS011;57821;52.202;0.154;2023-04-05T08:55:19;19.02;;;8.07;;
70406;SDS011;57821;52.202;0.154;2023-04-05T08:58:06;16.73;;;9.63;;
70406;SDS011;57821;52.202;0.154;2023-04-05T09:00:58;16.55;;;8.40;;
70406;SDS011;57821;52.202;0.154;2023-04-05T09:03:46;12.88;;;7.75;;
70406;SDS011;57821;52.202;0.154;2023-04-05T09:06:35;19.35;;;8.15;;
70406;SDS011;57821;52.202;0.154;2023-04-05T09:09:22;17.13;;;9.40;;
70406;SDS011;57821;52.202;0.154;2023-04-05T09:12:10;17.95;;;9.00;;
70406;SDS011;57821;52.202;0.154;2023-04-05T09:14:58;14.57;;;7.70;;
70406;SDS011;57821;52.202;0.154;2023-04-05T09:17:46;14.38;;;8.57;;
70406;SDS011;57821;52.202;0.154;2023-04-05T09:20:33;16.73;;;9.52;;
70406;SDS011;57821;52.202;0.154;2023-04-05T09:23:20;18.65;;;8.68;;
70406;SDS011;57821;52.202;0.154;2023-04-05T09:26:20;16.98;;;7.93;;
70406;SDS011;57821;52.202;0.154;2023-04-05T09:29:28;15.48;;;7.78;;
70406;SDS011;57821;52.202;0.154;2023-04-05T09:32:16;14.23;;;7.53;;
70406;SDS011;57821;52.202;0.154;2023-04-05T09:35:04;17.98;;;7.40;;
70406;SDS011;57821;52.202;0.154;2023-04-05T09:37:54;13.05;;;7.30;;
70406;SDS011;57821;52.202;0.154;2023-04-05T09:40:52;18.92;;;9.05;;
70406;SDS011;57821;52.202;0.154;2023-04-05T09:43:48;13.57;;;7.95;;
70406;SDS011;57821;52.202;0.154;2023-04-05T09:46:38;12.70;;;6.97;;
70406;SDS011;57821;52.202;0.154;2023-04-05T09:49:31;14.48;;;7.60;;
70406;SDS011;57821;52.202;0.154;2023-04-05T09:52:28;13.35;;;7.70;;
70406;SDS011;57821;52.202;0.154;2023-04-05T09:55:26;16.75;;;8.70;;
70406;SDS011;57821;52.202;0.154;2023-04-05T09:58:20;17.58;;;9.30;;
70406;SDS011;57821;52.202;0.154;2023-04-05T10:01:07;16.08;;;8.88;;
70406;SDS011;57821;52.202;0.154;2023-04-05T10:04:03;14.40;;;8.27;;
70406;SDS011;57821;52.202;0.154;2023-04-05T10:06:50;13.73;;;8.40;;
70406;SDS011;57821;52.202;0.154;2023-04-05T10:09:37;16.08;;;9.77;;
70406;SDS011;57821;52.202;0.154;2023-04-05T10:12:25;13.85;;;8.38;;
70406;SDS011;57821;52.202;0.154;2023-04-05T10:15:14;14.82;;;8.73;;
70406;SDS011;57821;52.202;0.154;2023-04-05T10:18:09;14.60;;;8.70;;
70406;SDS011;57821;52.202;0.154;2023-04-05T10:21:00;13.70;;;8.25;;
70406;SDS011;57821;52.202;0.154;2023-04-05T10:23:52;16.67;;;8.70;;
70406;SDS011;57821;52.202;0.154;2023-04-05T10:30:10;14.77;;;8.35;;
70406;SDS011;57821;52.202;0.154;2023-04-05T10:39:32;15.50;;;8.32;;
70406;SDS011;57821;52.202;0.154;2023-04-05T10:42:27;19.25;;;8.32;;
70406;SDS011;57821;52.202;0.154;2023-04-05T10:45:22;14.20;;;8.63;;
70406;SDS011;57821;52.202;0.154;2023-04-05T10:48:55;13.88;;;8.07;;
70406;SDS011;57821;52.202;0.154;2023-04-05T10:51:44;17.65;;;9.05;;
70406;SDS011;57821;52.202;0.154;2023-04-05T10:54:32;15.82;;;8.45;;
70406;SDS011;57821;52.202;0.154;2023-04-05T10:57:20;13.02;;;7.63;;
70406;SDS011;57821;52.202;0.154;2023-04-05T11:00:08;13.63;;;8.68;;
70406;SDS011;57821;52.202;0.154;2023-04-05T11:02:57;15.13;;;7.88;;
70406;SDS011;57821;52.202;0.154;2023-04-05T11:05:44;14.07;;;8.32;;
70406;SDS011;57821;52.202;0.154;2023-04-05T11:08:31;13.48;;;7.88;;
70406;SDS011;57821;52.202;0.154;2023-04-05T11:11:18;15.02;;;6.90;;
70406;SDS011;57821;52.202;0.154;2023-04-05T11:17:23;11.75;;;7.35;;
70406;SDS011;57821;52.202;0.154;2023-04-05T11:20:11;13.93;;;7.10;;
70406;SDS011;57821;52.202;0.154;2023-04-05T11:22:58;11.77;;;6.75;;
70406;SDS011;57821;52.202;0.154;2023-04-05T11:25:46;11.68;;;7.28;;
70406;SDS011;57821;52.202;0.154;2023-04-05T11:28:37;11.95;;;6.72;;
70406;SDS011;57821;52.202;0.154;2023-04-05T11:31:25;13.50;;;6.13;;
70406;SDS011;57821;52.202;0.154;2023-04-05T11:34:12;10.07;;;6.18;;
70406;SDS011;57821;52.202;0.154;2023-04-05T11:36:59;13.13;;;7.22;;
70406;SDS011;57821;52.202;0.154;2023-04-05T11:39:46;13.00;;;6.82;;
70406;SDS011;57821;52.202;0.154;2023-04-05T11:42:33;13.07;;;7.35;;
70406;SDS011;57821;52.202;0.154;2023-04-05T11:45:20;13.30;;;7.88;;
70406;SDS011;57821;52.202;0.154;2023-04-05T11:48:09;12.50;;;7.47;;
70406;SDS011;57821;52.202;0.154;2023-04-05T11:50:57;12.98;;;7.30;;
70406;SDS011;57821;52.202;0.154;2023-04-05T11:53:45;13.85;;;8.13;;
70406;SDS011;57821;52.202;0.154;2023-04-05T11:56:32;12.38;;;7.03;;
70406;SDS011;57821;52.202;0.154;2023-04-05T11:59:26;11.70;;;6.40;;
70406;SDS011;57821;52.202;0.154;2023-04-05T12:02:14;11.23;;;6.80;;
70406;SDS011;57821;52.202;0.154;2023-04-05T12:05:00;12.93;;;7.90;;
70406;SDS011;57821;52.202;0.154;2023-04-05T12:07:51;13.95;;;8.77;;
70406;SDS011;57821;52.202;0.154;2023-04-05T12:10:38;11.77;;;7.07;;
70406;SDS011;57821;52.202;0.154;2023-04-05T12:13:29;14.00;;;7.75;;
70406;SDS011;57821;52.202;0.154;2023-04-05T12:16:18;14.30;;;8.65;;
70406;SDS011;57821;52.202;0.154;2023-04-05T12:19:05;13.88;;;7.60;;
70406;SDS011;57821;52.202;0.154;2023-04-05T12:21:52;13.98;;;7.93;;
70406;SDS011;57821;52.202;0.154;2023-04-05T12:24:39;13.35;;;7.15;;
70406;SDS011;57821;52.202;0.154;2023-04-05T12:27:26;15.73;;;9.07;;
70406;SDS011;57821;52.202;0.154;2023-04-05T12:33:08;15.18;;;7.88;;
70406;SDS011;57821;52.202;0.154;2023-04-05T12:35:55;15.77;;;8.25;;
70406;SDS011;57821;52.202;0.154;2023-04-05T12:38:43;18.48;;;9.70;;
70406;SDS011;57821;52.202;0.154;2023-04-05T12:41:30;13.93;;;7.93;;
70406;SDS011;57821;52.202;0.154;2023-04-05T12:44:29;21.77;;;9.98;;
70406;SDS011;57821;52.202;0.154;2023-04-05T12:47:17;14.63;;;8.48;;
70406;SDS011;57821;52.202;0.154;2023-04-05T12:50:10;16.00;;;8.45;;
70406;SDS011;57821;52.202;0.154;2023-04-05T12:52:58;12.90;;;7.88;;
70406;SDS011;57821;52.202;0.154;2023-04-05T12:55:47;13.90;;;7.82;;
70406;SDS011;57821;52.202;0.154;2023-04-05T12:58:39;15.27;;;7.65;;
70406;SDS011;57821;52.202;0.154;2023-04-05T13:01:26;13.65;;;8.20;;
70406;SDS011;57821;52.202;0.154;2023-04-05T13:04:13;14.15;;;8.00;;
70406;SDS011;57821;52.202;0.154;2023-04-05T13:07:02;14.05;;;8.10;;
70406;SDS011;57821;52.202;0.154;2023-04-05T13:09:49;15.27;;;8.32;;
70406;SDS011;57821;52.202;0.154;2023-04-05T13:12:36;15.70;;;9.40;;
70406;SDS011;57821;52.202;0.154;2023-04-05T13:15:23;11.40;;;7.45;;
70406;SDS011;57821;52.202;0.154;2023-04-05T13:18:10;14.63;;;8.60;;
70406;SDS011;57821;52.202;0.154;2023-04-05T13:20:57;14.68;;;7.72;;
70406;SDS011;57821;52.202;0.154;2023-04-05T13:23:44;13.68;;;8.02;;
70406;SDS011;57821;52.202;0.154;2023-04-05T13:26:31;15.77;;;8.50;;
70406;SDS011;57821;52.202;0.154;2023-04-05T13:29:18;14.85;;;8.00;;
70406;SDS011;57821;52.202;0.154;2023-04-05T13:32:05;15.10;;;7.30;;
70406;SDS011;57821;52.202;0.154;2023-04-05T13:34:52;14.13;;;7.13;;
70406;SDS011;57821;52.202;0.154;2023-04-05T13:37:39;15.18;;;7.28;;
70406;SDS011;57821;52.202;0.154;2023-04-05T13:40:26;13.77;;;6.10;;
70406;SDS011;57821;52.202;0.154;2023-04-05T13:43:13;16.13;;;6.72;;
70406;SDS011;57821;52.202;0.154;2023-04-05T13:45:59;10.63;;;5.28;;
70406;SDS011;57821;52.202;0.154;2023-04-05T13:48:46;9.40;;;5.68;;
70406;SDS011;57821;52.202;0.154;2023-04-05T13:51:33;11.75;;;5.43;;
70406;SDS011;57821;52.202;0.154;2023-04-05T13:54:20;10.32;;;5.32;;
70406;SDS011;57821;52.202;0.154;2023-04-05T13:57:07;10.82;;;6.13;;
70406;SDS011;57821;52.202;0.154;2023-04-05T13:59:54;9.90;;;5.30;;
70406;SDS011;57821;52.202;0.154;2023-04-05T14:02:41;8.73;;;5.05;;
70406;SDS011;57821;52.202;0.154;2023-04-05T14:05:28;10.95;;;5.13;;
70406;SDS011;57821;52.202;0.154;2023-04-05T14:08:15;10.52;;;5.05;;
70406;SDS011;57821;52.202;0.154;2023-04-05T14:11:02;10.05;;;5.25;;
70406;SDS011;57821;52.202;0.154;2023-04-05T14:13:49;16.73;;;5.18;;
70406;SDS011;57821;52.202;0.154;2023-04-05T14:16:36;10.82;;;5.22;;
70406;SDS011;57821;52.202;0.154;2023-04-05T14:19:22;9.75;;;4.80;;
70406;SDS011;57821;52.202;0.154;2023-04-05T14:22:09;11.32;;;4.85;;
70406;SDS011;57821;52.202;0.154;2023-04-05T14:24:56;13.30;;;6.00;;
70406;SDS011;57821;52.202;0.154;2023-04-05T14:27:43;11.60;;;5.97;;
70406;SDS011;57821;52.202;0.154;2023-04-05T14:30:30;10.48;;;5.53;;
70406;SDS011;57821;52.202;0.154;2023-04-05T14:33:17;10.68;;;5.78;;
70406;SDS011;57821;52.202;0.154;2023-04-05T14:36:04;11.07;;;5.30;;
70406;SDS011;57821;52.202;0.154;2023-04-05T14:38:50;10.25;;;5.28;;
70406;SDS011;57821;52.202;0.154;2023-04-05T14:41:37;10.55;;;5.55;;
70406;SDS011;57821;52.202;0.154;2023-04-05T14:44:24;9.30;;;5.40;;
70406;SDS011;57821;52.202;0.154;2023-04-05T14:47:11;14.50;;;5.93;;
70406;SDS011;57821;52.202;0.154;2023-04-05T14:49:58;10.15;;;5.50;;
70406;SDS011;57821;52.202;0.154;2023-04-05T14:52:45;10.18;;;5.07;;
70406;SDS011;57821;52.202;0.154;2023-04-05T14:55:32;11.32;;;5.38;;
70406;SDS011;57821;52.202;0.154;2023-04-05T14:58:18;12.45;;;5.35;;
70406;SDS011;57821;52.202;0.154;2023-04-05T15:01:05;11.32;;;4.88;;
70406;SDS011;57821;52.202;0.154;2023-04-05T15:03:53;9.95;;;5.13;;
70406;SDS011;57821;52.202;0.154;2023-04-05T15:06:39;11.55;;;4.75;;
70406;SDS011;57821;52.202;0.154;2023-04-05T15:09:26;10.25;;;4.82;;
70406;SDS011;57821;52.202;0.154;2023-04-05T15:12:13;13.60;;;5.40;;
70406;SDS011;57821;52.202;0.154;2023-04-05T15:15:00;9.32;;;4.32;;
70406;SDS011;57821;52.202;0.154;2023-04-05T15:17:47;8.95;;;4.72;;
70406;SDS011;57821;52.202;0.154;2023-04-05T15:20:34;9.73;;;4.63;;
70406;SDS011;57821;52.202;0.154;2023-04-05T15:23:21;10.13;;;4.72;;
70406;SDS011;57821;52.202;0.154;2023-04-05T15:26:08;8.63;;;4.45;;
70406;SDS011;57821;52.202;0.154;2023-04-05T15:28:55;15.10;;;5.25;;
70406;SDS011;57821;52.202;0.154;2023-04-05T15:31:41;10.27;;;4.40;;
70406;SDS011;57821;52.202;0.154;2023-04-05T15:34:29;11.93;;;5.88;;
70406;SDS011;57821;52.202;0.154;2023-04-05T15:37:16;11.70;;;4.90;;
70406;SDS011;57821;52.202;0.154;2023-04-05T15:40:03;12.60;;;5.20;;
70406;SDS011;57821;52.202;0.154;2023-04-05T15:42:52;9.68;;;4.82;;
70406;SDS011;57821;52.202;0.154;2023-04-05T15:45:39;13.32;;;4.55;;
70406;SDS011;57821;52.202;0.154;2023-04-05T15:48:26;11.68;;;4.13;;
70406;SDS011;57821;52.202;0.154;2023-04-05T15:51:13;10.32;;;4.75;;
70406;SDS011;57821;52.202;0.154;2023-04-05T15:54:01;14.75;;;5.10;;
70406;SDS011;57821;52.202;0.154;2023-04-05T15:56:48;10.23;;;4.75;;
70406;SDS011;57821;52.202;0.154;2023-04-05T15:59:35;13.05;;;4.85;;
70406;SDS011;57821;52.202;0.154;2023-04-05T16:02:22;9.48;;;4.55;;
70406;SDS011;57821;52.202;0.154;2023-04-05T16:05:09;11.48;;;4.95;;
70406;SDS011;57821;52.202;0.154;2023-04-05T16:07:56;11.98;;;5.30;;
70406;SDS011;57821;52.202;0.154;2023-04-05T16:10:43;11.65;;;5.90;;
70406;SDS011;57821;52.202;0.154;2023-04-05T16:13:30;13.40;;;5.40;;
70406;SDS011;57821;52.202;0.154;2023-04-05T16:16:17;15.52;;;6.47;;
70406;SDS011;57821;52.202;0.154;2023-04-05T16:19:23;11.15;;;5.78;;
70406;SDS011;57821;52.202;0.154;2023-04-05T16:22:10;11.00;;;5.97;;
70406;SDS011;57821;52.202;0.154;2023-04-05T16:24:57;12.77;;;6.32;;
70406;SDS011;57821;52.202;0.154;2023-04-05T16:27:44;13.43;;;6.80;;
70406;SDS011;57821;52.202;0.154;2023-04-05T16:30:31;17.88;;;5.75;;
70406;SDS011;57821;52.202;0.154;2023-04-05T16:33:18;16.35;;;6.47;;
70406;SDS011;57821;52.202;0.154;2023-04-05T16:36:05;13.60;;;6.95;;
70406;SDS011;57821;52.202;0.154;2023-04-05T16:38:52;14.07;;;7.55;;
70406;SDS011;57821;52.202;0.154;2023-04-05T16:41:39;13.38;;;6.82;;
70406;SDS011;57821;52.202;0.154;2023-04-05T16:44:25;12.80;;;7.18;;
70406;SDS011;57821;52.202;0.154;2023-04-05T16:47:12;18.70;;;7.40;;
70406;SDS011;57821;52.202;0.154;2023-04-05T16:49:59;15.98;;;8.10;;
70406;SDS011;57821;52.202;0.154;2023-04-05T16:52:46;14.55;;;8.65;;
70406;SDS011;57821;52.202;0.154;2023-04-05T16:55:33;18.10;;;11.77;;
70406;SDS011;57821;52.202;0.154;2023-04-05T16:58:20;17.77;;;10.02;;
70406;SDS011;57821;52.202;0.154;2023-04-05T17:01:06;30.05;;;20.35;;
70406;SDS011;57821;52.202;0.154;2023-04-05T17:03:53;17.27;;;10.07;;
70406;SDS011;57821;52.202;0.154;2023-04-05T17:06:40;15.02;;;9.15;;
70406;SDS011;57821;52.202;0.154;2023-04-05T17:09:27;13.55;;;8.10;;
70406;SDS011;57821;52.202;0.154;2023-04-05T17:12:14;19.33;;;11.02;;